Time;durP1;ratioP1;P1;durP2;ratioP2;P2;SDS_P1;SDS_P2;PMS_P1;PMS_P2;Temp;Humidity;BMP_temperature;BMP_pressure;BME280_temperature;BME280_humidity;BME280_pressure;Samples;Min_cycle;Max_cycle;Signal;HPM_P1;HPM_P2
2023/06/15 00:00:11;;;;;;;;;25.25;25.25;;;;;27.30;29.47;100812.84;4975196;28;45566;-79
2023/06/15 00:02:36;;;;;;;;;21.50;20.25;;;;;27.34;29.40;100824.00;4975364;28;45692;-79
2023/06/15 00:05:03;;;;;;;;;25.75;24.50;;;;;27.28;29.55;100823.00;4975341;28;45682;-80
2023/06/15 00:07:28;;;;;;;;;22.00;21.75;;;;;27.20;29.71;100817.03;4975293;28;46094;-78
2023/06/15 00:09:54;;;;;;;;;24.00;22.00;;;;;27.22;30.32;100831.09;4975226;28;45535;-80
2023/06/15 00:12:19;;;;;;;;;23.75;22.00;;;;;27.16;29.73;100827.38;4975310;28;45603;-80
2023/06/15 00:14:45;;;;;;;;;24.00;24.00;;;;;27.04;29.88;100821.03;4974385;28;46525;-79
2023/06/15 00:20:33;;;;;;;;;24.00;22.50;;;;;26.96;30.28;100822.06;4974560;28;45814;-80
2023/06/15 00:22:58;;;;;;;;;26.25;22.25;;;;;26.89;30.29;100821.25;4974972;28;45589;-78
2023/06/15 00:25:24;;;;;;;;;24.25;24.25;;;;;26.84;30.82;100836.31;4974756;28;46412;-79
2023/06/15 00:27:49;;;;;;;;;20.25;20.00;;;;;26.78;30.66;100834.47;4974823;28;46093;-79
2023/06/15 00:30:15;;;;;;;;;26.75;25.00;;;;;26.58;30.87;100804.94;4974758;28;45700;-79
2023/06/15 00:36:05;;;;;;;;;21.50;21.00;;;;;26.58;31.29;100829.13;4967521;28;45896;-80
2023/06/15 00:38:31;;;;;;;;;23.75;23.25;;;;;26.55;31.17;100833.06;4975404;28;46289;-78
2023/06/15 00:40:56;;;;;;;;;26.25;23.75;;;;;26.51;31.43;100839.03;4975143;28;45777;-81
2023/06/15 00:43:22;;;;;;;;;21.50;21.25;;;;;26.13;31.11;100802.00;4974952;28;45801;-80
2023/06/15 00:45:48;;;;;;;;;25.00;23.50;;;;;26.25;31.58;100821.91;4957094;28;47535;-79
2023/06/15 00:48:14;;;;;;;;;24.25;22.50;;;;;26.14;31.85;100814.41;4974602;28;46116;-80
2023/06/15 00:50:41;;;;;;;;;25.50;24.00;;;;;26.11;32.06;100822.91;4974670;28;45737;-80
2023/06/15 00:53:11;;;;;;;;;25.00;21.25;;;;;26.22;31.99;100843.81;4956809;28;45528;-78
2023/06/15 00:55:41;;;;;;;;;21.50;20.75;;;;;25.96;32.42;100811.53;4974385;28;46709;-80
2023/06/15 00:58:07;;;;;;;;;24.50;21.00;;;;;26.10;32.19;100845.41;4974566;28;46136;-79
2023/06/15 01:00:33;;;;;;;;;21.25;19.00;;;;;26.03;32.60;100844.56;4974348;28;46099;-78
2023/06/15 01:06:24;;;;;;;;;20.00;18.50;;;;;25.89;32.67;100840.22;4974273;28;45846;-79
2023/06/15 01:08:52;;;;;;;;;19.50;18.75;;;;;25.83;32.37;100839.16;4974120;28;46022;-80
2023/06/15 01:11:18;;;;;;;;;19.25;19.00;;;;;25.79;32.38;100840.59;4974328;28;45821;-78
2023/06/15 01:13:44;;;;;;;;;21.50;20.00;;;;;25.72;32.75;100834.38;4974056;28;45628;-79
2023/06/15 01:16:23;;;;;;;;;21.25;18.25;;;;;25.72;32.68;100839.75;4974165;28;45482;-79
2023/06/15 01:18:56;;;;;;;;;21.75;20.25;;;;;25.68;32.67;100837.66;4974147;28;45926;-80
2023/06/15 01:21:25;;;;;;;;;22.25;21.75;;;;;25.50;32.83;100814.03;4975826;28;45601;-79
2023/06/15 01:24:08;;;;;;;;;21.00;20.00;;;;;25.66;32.74;100845.09;4957537;28;45913;-80
2023/06/15 01:26:38;;;;;;;;;23.50;22.50;;;;;25.46;32.80;100813.63;4973533;28;46457;-79
2023/06/15 01:29:04;;;;;;;;;22.50;21.50;;;;;25.62;32.83;100841.16;4974512;28;46163;-80
2023/06/15 01:31:30;;;;;;;;;46.75;39.00;;;;;25.59;32.79;100849.63;4974370;28;45650;-78
2023/06/15 01:33:55;;;;;;;;;50.00;38.75;;;;;25.52;32.75;100838.00;4974122;28;45423;-78
2023/06/15 01:36:21;;;;;;;;;51.25;40.00;;;;;25.50;32.58;100830.13;4973695;28;46441;-80
2023/06/15 01:38:52;;;;;;;;;57.00;44.00;;;;;25.51;32.68;100845.22;4973643;28;45576;-79
2023/06/15 01:41:20;;;;;;;;;60.25;47.25;;;;;25.49;32.56;100841.91;4973697;28;45843;-80
2023/06/15 01:43:46;;;;;;;;;54.50;43.25;;;;;25.40;32.78;100829.69;4973719;28;45613;-79
2023/06/15 01:46:11;;;;;;;;;60.00;46.50;;;;;25.46;32.65;100843.13;4973613;28;45551;-78
2023/06/15 01:51:58;;;;;;;;;61.00;46.00;;;;;25.21;32.50;100807.09;4973206;28;45601;-78
2023/06/15 01:54:24;;;;;;;;;61.50;48.00;;;;;25.45;32.65;100843.34;4973596;28;45565;-79
2023/06/15 01:56:49;;;;;;;;;53.50;43.75;;;;;25.38;32.75;100832.56;4973382;28;45509;-79
2023/06/15 01:59:15;;;;;;;;;49.75;41.00;;;;;25.44;32.77;100837.13;4973275;28;45574;-78
2023/06/15 02:01:40;;;;;;;;;58.00;43.50;;;;;25.42;32.96;100844.56;4973333;28;45517;-80
2023/06/15 02:04:08;;;;;;;;;52.75;39.75;;;;;25.36;32.63;100823.06;4973256;28;45537;-79
2023/06/15 02:06:34;;;;;;;;;49.25;40.00;;;;;25.44;32.32;100839.00;4973058;28;47384;-79
2023/06/15 02:08:59;;;;;;;;;46.25;35.25;;;;;25.43;32.44;100835.47;4971255;28;47671;-80
2023/06/15 02:11:25;;;;;;;;;49.50;38.25;;;;;25.41;32.83;100842.91;4973366;28;45711;-80
2023/06/15 02:13:52;;;;;;;;;50.00;38.00;;;;;25.33;32.44;100826.16;4973164;28;45733;-79
2023/06/15 02:16:19;;;;;;;;;43.50;34.50;;;;;25.39;32.93;100839.59;4973269;28;45487;-79
2023/06/15 02:22:06;;;;;;;;;34.50;32.00;;;;;25.29;32.76;100830.25;4972852;28;45881;-79
2023/06/15 02:24:32;;;;;;;;;31.50;30.00;;;;;25.34;33.10;100844.72;4972848;28;45704;-79
2023/06/15 02:26:57;;;;;;;;;32.00;30.25;;;;;25.32;32.82;100843.25;4972986;28;45585;-79
2023/06/15 02:29:22;;;;;;;;;29.25;27.00;;;;;25.30;32.75;100848.84;4972950;28;46342;-77
2023/06/15 02:31:48;;;;;;;;;35.00;30.00;;;;;25.25;32.62;100842.41;4973231;28;45643;-80
2023/06/15 02:37:35;;;;;;;;;30.25;28.00;;;;;25.21;33.04;100841.16;4961456;28;46036;-80
2023/06/15 02:40:04;;;;;;;;;32.75;30.75;;;;;25.19;33.03;100841.38;4972724;28;45980;-80
2023/06/15 02:42:29;;;;;;;;;38.25;32.00;;;;;25.16;33.19;100840.91;4972855;28;45882;-80
2023/06/15 02:44:54;;;;;;;;;31.00;26.75;;;;;25.14;33.18;100845.66;4972861;28;45534;-79
2023/06/15 02:47:20;;;;;;;;;34.75;30.25;;;;;25.12;32.97;100842.34;4972646;28;45600;-79
2023/06/15 02:49:46;;;;;;;;;32.75;30.50;;;;;25.03;33.24;100834.47;4972500;28;45505;-79
2023/06/15 02:52:11;;;;;;;;;37.00;30.50;;;;;25.09;33.49;100840.91;4972724;28;45616;-80
2023/06/15 02:54:36;;;;;;;;;38.00;32.50;;;;;25.08;33.43;100848.09;4972549;28;45947;-79
2023/06/15 02:57:06;;;;;;;;;32.50;30.50;;;;;25.08;33.01;100844.59;4971030;28;47044;-79
2023/06/15 02:59:35;;;;;;;;;36.75;32.25;;;;;25.03;33.06;100844.38;4972400;28;46154;-79
2023/06/15 03:02:04;;;;;;;;;33.50;30.25;;;;;25.05;33.24;100851.16;4972441;28;45498;-79
2023/06/15 03:07:52;;;;;;;;;38.25;32.50;;;;;25.01;32.75;100841.03;4972260;28;46018;-78
2023/06/15 03:10:18;;;;;;;;;33.00;30.75;;;;;24.99;33.37;100846.59;4972534;28;46043;-78
2023/06/15 03:12:43;;;;;;;;;30.75;28.75;;;;;24.97;33.27;100840.63;4972623;28;45625;-79
2023/06/15 03:15:09;;;;;;;;;30.00;27.50;;;;;24.86;33.47;100824.22;4972659;28;45609;-80
2023/06/15 03:17:34;;;;;;;;;23.50;21.50;;;;;24.91;33.56;100837.88;4972620;28;45591;-80
2023/06/15 03:20:00;;;;;;;;;8.00;6.50;;;;;24.85;33.16;100831.44;4972562;28;46297;-79
2023/06/15 03:22:33;;;;;;;;;29.00;27.25;;;;;24.86;33.50;100849.16;4972405;28;45678;-79
2023/06/15 03:25:10;;;;;;;;;25.50;22.50;;;;;24.90;33.06;100852.31;4954618;28;46045;-80
2023/06/15 03:27:37;;;;;;;;;23.50;22.25;;;;;24.50;33.35;100792.22;4972530;28;46887;-79
2023/06/15 03:30:05;;;;;;;;;25.50;24.25;;;;;24.79;33.25;100837.56;4972734;28;46283;-78
2023/06/15 03:32:32;;;;;;;;;22.75;20.25;;;;;24.89;33.09;100854.16;4973071;28;45749;-78
2023/06/15 03:38:19;;;;;;;;;16.75;16.00;;;;;24.84;33.24;100843.16;4965731;28;45536;-79
2023/06/15 03:40:48;;;;;;;;;17.25;17.00;;;;;24.82;32.96;100847.91;4972762;28;46125;-80
2023/06/15 03:43:41;;;;;;;;;22.50;20.50;;;;;24.71;33.03;100837.72;4957371;28;45780;-80
2023/06/15 03:46:07;;;;;;;;;22.00;21.00;;;;;24.71;33.18;100836.91;4974327;28;45478;-79
2023/06/15 03:48:32;;;;;;;;;19.75;14.50;;;;;24.64;33.34;100826.13;4956136;28;46270;-79
2023/06/15 03:50:57;;;;;;;;;20.00;18.50;;;;;24.80;33.11;100860.66;4975485;28;45890;-79
2023/06/15 03:53:24;;;;;;;;;20.75;19.25;;;;;24.74;33.23;100848.06;4974898;28;46302;-77
2023/06/15 03:55:50;;;;;;;;;17.50;17.25;;;;;24.54;33.24;100814.94;4975502;28;45590;-78
2023/06/15 03:58:16;;;;;;;;;18.25;17.00;;;;;24.79;33.40;100852.81;4975045;28;46397;-80
2023/06/15 04:00:43;;;;;;;;;18.75;18.25;;;;;24.65;33.08;100838.50;4975111;28;46156;-79
2023/06/15 04:03:09;;;;;;;;;20.50;18.50;;;;;24.73;33.66;100856.28;4975008;28;45833;-79
2023/06/15 04:05:34;;;;;;;;;17.25;16.75;;;;;24.55;33.49;100838.03;4975237;28;45572;-80
2023/06/15 04:08:01;;;;;;;;;13.00;12.00;;;;;24.63;33.41;100859.31;4975014;28;46258;-79
2023/06/15 04:10:27;;;;;;;;;16.50;15.25;;;;;24.56;33.31;100855.75;4975221;28;46018;-79
2023/06/15 04:12:52;;;;;;;;;13.25;12.25;;;;;24.54;33.57;100863.16;4975190;28;45602;-79
2023/06/15 04:15:18;;;;;;;;;13.75;13.00;;;;;24.47;33.66;100854.22;4975229;28;45605;-78
2023/06/15 04:17:43;;;;;;;;;15.75;14.50;;;;;24.42;33.84;100860.16;4975068;28;46429;-80
2023/06/15 04:23:30;;;;;;;;;16.75;14.50;;;;;24.38;33.84;100866.09;4974493;28;45635;-80
2023/06/15 04:25:58;;;;;;;;;14.00;13.50;;;;;24.34;33.91;100875.56;4975128;28;45952;-80
2023/06/15 04:28:24;;;;;;;;;14.75;14.25;;;;;24.31;34.10;100873.25;4974684;28;45702;-79
2023/06/15 04:31:05;;;;;;;;;14.50;13.00;;;;;24.18;34.00;100871.28;4974791;28;45972;-80
2023/06/15 04:33:32;;;;;;;;;18.00;15.00;;;;;24.18;34.11;100874.75;4974624;28;45925;-79
2023/06/15 04:35:57;;;;;;;;;12.00;12.00;;;;;24.16;34.13;100873.28;4974890;28;45779;-82
2023/06/15 04:38:22;;;;;;;;;12.25;12.00;;;;;24.11;34.83;100870.34;4956562;28;48404;-79
2023/06/15 04:40:48;;;;;;;;;18.75;18.00;;;;;24.07;35.05;100879.78;4974737;28;45703;-80
2023/06/15 04:43:13;;;;;;;;;18.00;15.00;;;;;24.03;35.29;100881.16;4974533;28;45778;-80
2023/06/15 04:45:38;;;;;;;;;15.25;15.25;;;;;24.00;35.93;100885.06;4974636;28;45702;-80
2023/06/15 04:48:05;;;;;;;;;18.00;17.00;;;;;23.97;35.09;100892.66;4974419;28;45742;-78
2023/06/15 04:53:52;;;;;;;;;14.00;14.00;;;;;23.85;35.83;100881.59;4974071;28;45604;-80
2023/06/15 04:56:17;;;;;;;;;19.75;18.00;;;;;23.92;35.90;100892.38;4974725;28;45672;-79
2023/06/15 04:58:43;;;;;;;;;14.50;13.50;;;;;23.91;35.88;100894.25;4956916;28;46311;-79
2023/06/15 05:01:08;;;;;;;;;15.50;15.50;;;;;23.89;35.56;100885.56;4974292;28;45821;-79
2023/06/15 05:03:34;;;;;;;;;14.50;14.25;;;;;23.79;35.87;100874.31;4974144;28;45624;-79
2023/06/15 05:09:21;;;;;;;;;15.50;15.50;;;;;23.98;36.06;100895.13;4974046;28;45624;-80
2023/06/15 05:11:46;;;;;;;;;15.50;14.00;;;;;23.95;35.91;100886.66;4974223;28;45590;-78
2023/06/15 05:14:11;;;;;;;;;13.50;13.00;;;;;23.96;36.05;100885.63;4974027;28;45708;-78
2023/06/15 05:16:37;;;;;;;;;16.00;14.25;;;;;23.98;35.78;100888.94;4974452;28;45737;-80
2023/06/15 05:19:02;;;;;;;;;15.00;14.00;;;;;24.09;35.84;100897.31;4973622;28;46287;-80
2023/06/15 05:21:28;;;;;;;;;16.75;14.25;;;;;24.12;35.60;100901.47;4973825;28;46162;-81
2023/06/15 05:23:53;;;;;;;;;14.00;13.00;;;;;24.14;35.45;100899.41;4973559;28;45750;-81
2023/06/15 05:26:19;;;;;;;;;16.00;14.75;;;;;24.18;35.91;100912.25;4974028;28;45879;-79
2023/06/15 05:28:44;;;;;;;;;17.75;16.25;;;;;24.14;35.21;100894.88;4973958;28;46791;-79
2023/06/15 05:31:10;;;;;;;;;16.50;15.50;;;;;24.14;35.38;100883.34;4973525;28;45807;-79
2023/06/15 05:33:36;;;;;;;;;16.00;15.25;;;;;24.26;35.43;100905.97;4974243;28;45525;-85
2023/06/15 05:39:24;;;;;;;;;15.00;12.00;;;;;24.09;35.15;100875.88;4962769;28;45719;-78
2023/06/15 05:41:49;;;;;;;;;18.00;15.00;;;;;24.27;35.44;100910.31;4973564;28;45604;-78
2023/06/15 05:44:15;;;;;;;;;14.00;13.00;;;;;24.30;35.40;100911.75;4973538;28;45532;-79
2023/06/15 05:46:40;;;;;;;;;17.75;15.75;;;;;24.27;35.72;100918.34;4973931;28;45496;-79
2023/06/15 05:49:05;;;;;;;;;14.50;13.25;;;;;24.28;35.68;100920.00;4973619;28;46241;-79
2023/06/15 05:54:53;;;;;;;;;16.75;15.25;;;;;24.22;35.75;100918.91;4973152;28;45665;-79
2023/06/15 05:57:19;;;;;;;;;14.00;13.25;;;;;24.16;35.47;100914.28;4973827;28;45628;-79
2023/06/15 05:59:47;;;;;;;;;16.25;15.00;;;;;24.28;35.80;100935.25;4973220;28;46322;-79
2023/06/15 06:02:13;;;;;;;;;15.00;14.00;;;;;24.23;36.02;100928.63;4955405;28;47391;-79
2023/06/15 06:04:38;;;;;;;;;18.75;16.50;;;;;24.23;36.10;100928.63;4973253;28;45610;-80
2023/06/15 06:07:07;;;;;;;;;12.75;12.25;;;;;24.24;36.08;100924.88;4973486;28;45732;-79
2023/06/15 06:09:34;;;;;;;;;16.00;15.25;;;;;24.17;36.51;100910.63;4973171;28;46499;-79
2023/06/15 06:12:01;;;;;;;;;15.75;14.00;;;;;24.11;35.84;100900.63;4972253;28;46351;-79
2023/06/15 06:14:27;;;;;;;;;17.00;14.75;;;;;24.28;35.69;100929.88;4973478;28;45723;-78
2023/06/15 06:16:53;;;;;;;;;16.00;15.25;;;;;24.25;35.85;100929.22;4973483;28;45576;-78
2023/06/15 06:19:18;;;;;;;;;14.75;13.75;;;;;24.22;36.06;100926.94;4973236;28;45577;-78
2023/06/15 06:25:06;;;;;;;;;14.75;13.25;;;;;24.21;36.02;100935.16;4972881;28;45840;-79
2023/06/15 06:27:31;;;;;;;;;16.50;15.00;;;;;24.20;36.04;100931.66;4973343;28;45676;-80
2023/06/15 06:29:58;;;;;;;;;18.50;16.50;;;;;24.22;36.37;100940.34;4972977;28;46589;-79
2023/06/15 06:32:23;;;;;;;;;14.00;13.00;;;;;24.20;36.10;100939.69;4973692;28;45933;-79
2023/06/15 06:34:48;;;;;;;;;14.75;14.00;;;;;24.19;35.54;100940.69;4974562;28;45667;-78
2023/06/15 06:40:35;;;;;;;;;12.75;12.50;;;;;24.10;35.85;100923.06;4963234;28;46068;-79
2023/06/15 06:43:01;;;;;;;;;14.50;13.25;;;;;24.19;35.72;100939.88;4972331;28;45650;-79
2023/06/15 06:45:26;;;;;;;;;14.50;12.50;;;;;24.23;35.53;100946.53;4972878;28;45778;-79
2023/06/15 06:47:51;;;;;;;;;12.25;11.75;;;;;24.21;35.67;100951.22;4971362;28;45782;-79
2023/06/15 06:50:17;;;;;;;;;13.00;12.50;;;;;24.21;35.94;100951.22;4972583;28;45715;-79
2023/06/15 06:52:42;;;;;;;;;12.00;12.00;;;;;24.23;35.74;100951.88;4972575;28;45748;-79
2023/06/15 06:55:08;;;;;;;;;15.25;14.00;;;;;24.25;35.36;100947.97;4972620;28;45573;-79
2023/06/15 06:57:35;;;;;;;;;15.00;15.00;;;;;24.23;35.71;100954.56;4972906;28;45767;-78
2023/06/15 07:00:02;;;;;;;;;15.25;13.00;;;;;24.21;35.55;100954.75;4972334;28;45670;-79
2023/06/15 07:02:28;;;;;;;;;14.25;13.50;;;;;24.31;35.47;100956.28;4972559;28;46336;-79
2023/06/15 07:04:53;;;;;;;;;13.00;12.25;;;;;24.29;35.47;100950.28;4972718;28;45651;-80
2023/06/15 07:10:40;;;;;;;;;13.00;11.75;;;;;24.37;34.95;100955.50;4972247;28;46082;-79
2023/06/15 07:13:06;;;;;;;;;11.00;11.00;;;;;24.41;35.50;100970.19;4972278;28;46328;-80
2023/06/15 07:15:31;;;;;;;;;12.50;11.25;;;;;24.23;35.44;100941.16;4955130;28;45754;-79
2023/06/15 07:17:57;;;;;;;;;12.25;12.00;;;;;24.40;34.90;100965.88;4972693;28;45700;-78
2023/06/15 07:20:23;;;;;;;;;11.75;11.75;;;;;24.42;34.78;100967.31;4972324;28;45678;-79
2023/06/15 07:22:48;;;;;;;;;13.00;12.00;;;;;24.50;35.30;100971.75;4972333;28;45785;-79
2023/06/15 07:25:14;;;;;;;;;14.25;12.50;;;;;24.35;35.18;100938.78;4975699;28;45703;-78
2023/06/15 07:27:41;;;;;;;;;13.25;11.50;;;;;24.57;35.00;100977.97;4975748;28;45711;-79
2023/06/15 07:30:07;;;;;;;;;13.50;12.75;;;;;24.60;34.84;100975.75;4957396;28;47196;-78
2023/06/15 07:32:33;;;;;;;;;13.00;12.50;;;;;24.48;35.06;100949.66;4973937;28;47325;-78
2023/06/15 07:34:59;;;;;;;;;13.00;12.00;;;;;24.65;34.71;100975.19;4975561;28;45671;-79
2023/06/15 07:40:46;;;;;;;;;13.50;12.75;;;;;24.69;35.16;100987.16;4973772;28;45634;-78
2023/06/15 07:43:11;;;;;;;;;14.25;14.25;;;;;24.63;34.79;100974.53;4975335;28;45820;-80
2023/06/15 07:45:36;;;;;;;;;13.00;13.00;;;;;24.72;34.63;100986.81;4975749;28;45612;-78
2023/06/15 07:48:03;;;;;;;;;14.25;12.50;;;;;24.72;35.17;100984.13;4975360;28;45653;-79
2023/06/15 07:50:29;;;;;;;;;12.50;11.50;;;;;24.64;34.87;100973.53;4975381;28;46521;-79
2023/06/15 07:56:16;;;;;;;;;12.50;12.00;;;;;24.53;35.09;100957.94;4975150;28;45676;-79
2023/06/15 07:58:41;;;;;;;;;13.00;12.00;;;;;24.66;34.41;100984.88;4975268;28;45898;-81
2023/06/15 08:01:06;;;;;;;;;6.00;5.00;;;;;24.66;34.71;100984.88;4975299;28;45638;-77
2023/06/15 08:03:32;;;;;;;;;11.50;10.50;;;;;24.62;34.17;100968.34;4974943;28;46060;-78
2023/06/15 08:06:21;;;;;;;;;9.00;9.00;;;;;24.75;34.42;100980.22;4975316;28;45764;-80
2023/06/15 08:08:47;;;;;;;;;13.25;10.25;;;;;24.78;33.87;100985.22;4974727;28;45822;-79
2023/06/15 08:11:13;;;;;;;;;11.00;10.50;;;;;24.80;33.98;100985.81;4975151;28;46683;-80
2023/06/15 08:13:38;;;;;;;;;12.25;11.75;;;;;24.72;34.18;100969.88;4974894;28;45857;-80
2023/06/15 08:16:05;;;;;;;;;10.00;10.00;;;;;24.85;33.95;100991.44;4975228;28;45707;-78
2023/06/15 08:18:32;;;;;;;;;9.25;9.00;;;;;24.67;34.16;100947.16;4975183;28;45615;-78
2023/06/15 08:20:57;;;;;;;;;11.00;10.00;;;;;24.96;33.87;100997.16;4975112;28;45764;-79
2023/06/15 08:23:23;;;;;;;;;10.00;9.00;;;;;24.95;33.64;100981.25;4973229;28;47960;-78
2023/06/15 08:25:52;;;;;;;;;14.00;12.00;;;;;25.03;33.50;100990.00;4974967;28;45650;-78
2023/06/15 08:28:19;;;;;;;;;12.00;10.00;;;;;25.08;33.53;100994.78;4974618;28;45676;-79
2023/06/15 08:30:45;;;;;;;;;9.00;9.00;;;;;25.10;33.50;100991.91;4974539;28;46517;-80
2023/06/15 08:33:10;;;;;;;;;9.75;8.75;;;;;25.14;33.14;100999.38;4974453;28;46322;-80
2023/06/15 08:35:36;;;;;;;;;10.00;8.50;;;;;25.08;33.33;100982.19;4974486;28;45721;-79
2023/06/15 08:41:25;;;;;;;;;9.25;9.25;;;;;25.19;33.32;100990.72;4968112;28;46038;-78
2023/06/15 08:43:53;;;;;;;;;8.50;8.50;;;;;25.18;33.17;100987.22;4974665;28;46191;-78
2023/06/15 08:46:18;;;;;;;;;9.75;9.75;;;;;25.27;32.86;101001.31;4974591;28;45809;-78
2023/06/15 08:48:46;;;;;;;;;11.50;11.00;;;;;25.30;32.73;101001.75;4972929;28;45636;-78
2023/06/15 08:51:12;;;;;;;;;9.25;9.00;;;;;25.25;32.50;100989.97;4974245;28;46387;-80
2023/06/15 08:53:42;;;;;;;;;8.50;8.00;;;;;25.10;32.65;100957.88;4974218;28;45930;-79
2023/06/15 08:56:14;;;;;;;;;9.50;9.00;;;;;25.29;32.61;100986.69;4974109;28;45659;-79
2023/06/15 08:58:41;;;;;;;;;10.25;10.25;;;;;25.27;32.61;100972.63;4974469;28;45615;-79
2023/06/15 09:01:07;;;;;;;;;9.50;9.00;;;;;25.41;32.33;100986.97;4974374;28;46374;-79
2023/06/15 09:03:36;;;;;;;;;12.00;12.00;;;;;25.49;32.22;100995.69;4956471;28;48213;-79
2023/06/15 09:06:01;;;;;;;;;8.00;8.00;;;;;25.46;32.05;100984.53;4974330;28;45506;-80
2023/06/15 09:11:48;;;;;;;;;10.00;9.00;;;;;25.55;31.69;101001.28;4973924;28;45593;-81
2023/06/15 09:14:14;;;;;;;;;7.00;7.00;;;;;25.52;31.38;100999.84;4974001;28;45632;-80
2023/06/15 09:16:41;;;;;;;;;12.00;9.25;;;;;25.55;32.32;100996.75;4973831;28;45643;-80
2023/06/15 09:19:11;;;;;;;;;8.00;8.00;;;;;25.60;31.80;100994.34;4973898;28;45904;-80
2023/06/15 09:21:50;;;;;;;;;10.00;9.25;;;;;25.66;31.60;101000.78;4973721;28;47307;-79
2023/06/15 09:24:16;;;;;;;;;9.25;9.25;;;;;25.63;31.76;100985.06;4973998;28;46329;-80
2023/06/15 09:26:45;;;;;;;;;12.00;10.00;;;;;25.71;31.52;100996.47;4974231;28;45809;-80
2023/06/15 09:29:11;;;;;;;;;8.75;8.75;;;;;25.77;30.88;100997.53;4973933;28;45950;-80
2023/06/15 09:31:38;;;;;;;;;8.00;8.00;;;;;25.80;31.37;101003.31;4973615;28;46540;-79
2023/06/15 09:34:04;;;;;;;;;8.00;7.75;;;;;25.87;31.15;100995.31;4973835;28;46087;-79
2023/06/15 09:43:34;;;;;;;;;11.50;10.50;;;;;26.02;31.25;100985.25;4894362;29;45593;-78
2023/06/15 09:46:01;;;;;;;;;9.50;9.00;;;;;26.11;30.96;100999.34;4893663;29;45960;-79
2023/06/15 09:48:30;;;;;;;;;10.50;10.00;;;;;26.09;31.13;100983.44;4894238;29;45775;-80
2023/06/15 09:51:00;;;;;;;;;9.75;9.00;;;;;26.20;30.64;100990.06;4894426;29;45587;-80
2023/06/15 09:56:52;;;;;;;;;14.00;13.00;;;;;26.28;31.10;100982.72;4894227;29;45761;-79
2023/06/15 09:59:19;;;;;;;;;11.00;10.75;;;;;26.34;31.21;100994.50;4894046;29;45582;-78
2023/06/15 10:01:47;;;;;;;;;10.25;10.25;;;;;26.36;30.63;100980.84;4894404;29;45947;-80
2023/06/15 10:04:15;;;;;;;;;9.75;9.75;;;;;26.47;30.75;100993.69;4894489;29;46489;-80
2023/06/15 10:06:43;;;;;;;;;14.00;12.00;;;;;26.51;30.69;101006.53;4894418;29;46105;-79
2023/06/15 10:12:32;;;;;;;;;10.00;10.00;;;;;26.55;30.55;100986.28;4893950;29;45996;-79
2023/06/15 10:15:15;;;;;;;;;11.00;9.25;;;;;26.58;30.50;100993.09;4894024;29;47570;-79
2023/06/15 10:17:46;;;;;;;;;12.50;12.00;;;;;26.51;29.89;100976.13;4934171;28;47108;-80
2023/06/15 10:20:16;;;;;;;;;10.00;10.00;;;;;26.63;30.32;100994.16;4934315;28;45564;-80
2023/06/15 10:22:48;;;;;;;;;16.00;12.00;;;;;26.69;30.35;100990.66;4934514;28;45517;-80
2023/06/15 10:25:14;;;;;;;;;13.00;11.25;;;;;26.74;30.01;100996.22;4934227;28;45895;-80
2023/06/15 10:27:40;;;;;;;;;11.75;11.75;;;;;26.69;29.46;100976.38;4949118;28;46166;-80
2023/06/15 10:30:14;;;;;;;;;11.00;10.25;;;;;26.86;29.75;100990.25;4934728;28;45702;-79
2023/06/15 10:32:48;;;;;;;;;12.75;12.25;;;;;26.90;29.03;100996.91;4934414;28;45911;-79
2023/06/15 10:35:23;;;;;;;;;11.25;11.00;;;;;26.90;29.38;100986.13;4934049;28;46432;-80
2023/06/15 10:38:02;;;;;;;;;14.00;11.50;;;;;26.91;29.05;100972.50;4934167;28;46689;-80
2023/06/15 10:40:41;;;;;;;;;12.75;12.00;;;;;26.98;28.34;100992.16;4933887;28;45560;-79
2023/06/15 10:43:06;;;;;;;;;12.00;11.75;;;;;27.00;28.52;100987.38;4967197;28;45819;-79
2023/06/15 10:45:33;;;;;;;;;12.00;11.75;;;;;27.05;28.43;100992.97;4972496;28;45609;-80
2023/06/15 10:48:01;;;;;;;;;13.00;12.25;;;;;27.07;29.20;100988.22;4971585;28;46217;-79
2023/06/15 10:50:43;;;;;;;;;14.00;12.75;;;;;27.10;28.54;100989.66;4972495;28;45672;-80
2023/06/15 10:53:25;;;;;;;;;13.75;13.75;;;;;27.12;28.66;100984.91;4972784;28;45828;-80
2023/06/15 10:55:58;;;;;;;;;14.00;13.00;;;;;27.16;28.61;100986.13;4972719;28;45533;-79
2023/06/15 10:58:26;;;;;;;;;14.25;13.00;;;;;27.19;28.88;100991.09;4974923;28;45615;-80
2023/06/15 11:01:09;;;;;;;;;14.50;14.00;;;;;27.20;29.12;100997.31;4975960;28;45493;-80
2023/06/15 11:03:35;;;;;;;;;13.25;12.25;;;;;27.16;29.30;100983.44;4976109;28;45668;-79
2023/06/15 11:06:06;;;;;;;;;14.75;13.50;;;;;27.21;29.50;100988.22;4975888;28;45635;-80
2023/06/15 11:08:51;;;;;;;;;13.75;13.00;;;;;27.25;29.25;100982.22;4975460;28;46366;-80
2023/06/15 11:11:46;;;;;;;;;15.50;15.00;;;;;27.30;28.99;100982.41;4975753;28;45765;-80
2023/06/15 11:14:23;;;;;;;;;13.25;11.50;;;;;27.28;29.41;100976.41;4972213;28;45549;-79
2023/06/15 11:17:03;;;;;;;;;14.00;13.50;;;;;27.39;29.58;100983.00;4975658;28;47651;-79
2023/06/15 11:19:29;;;;;;;;;14.25;14.00;;;;;27.31;29.19;100957.16;4975338;28;46807;-80
2023/06/15 11:22:00;;;;;;;;;15.00;14.00;;;;;27.49;29.34;100980.69;4975749;28;45696;-81
2023/06/15 11:24:34;;;;;;;;;19.00;16.75;;;;;27.50;28.93;100988.59;4975695;28;45461;-80
2023/06/15 11:27:03;;;;;;;;;17.50;17.25;;;;;27.47;29.08;100986.31;4975529;28;46106;-79
2023/06/15 11:29:33;;;;;;;;;14.00;13.50;;;;;27.40;29.44;100968.50;4975486;28;46110;-81
2023/06/15 11:32:03;;;;;;;;;15.75;13.25;;;;;27.53;29.76;100979.28;4975620;28;45686;-79
2023/06/15 11:34:32;;;;;;;;;14.25;14.25;;;;;27.55;29.55;100969.97;4975685;28;45653;-78
2023/06/15 11:36:59;;;;;;;;;16.75;16.00;;;;;27.57;29.48;100966.22;4975633;28;46475;-79
2023/06/15 11:39:27;;;;;;;;;16.75;16.00;;;;;27.64;29.67;100967.03;4975054;28;46018;-79
2023/06/15 11:41:56;;;;;;;;;15.25;15.25;;;;;27.53;29.92;100953.16;4974858;28;45787;-79
2023/06/15 11:44:31;;;;;;;;;16.50;14.00;;;;;27.68;29.24;100965.56;4975331;28;45605;-80
2023/06/15 11:47:00;;;;;;;;;10.75;10.00;;;;;27.55;29.68;100945.72;4975198;28;47495;-79
2023/06/15 11:49:32;;;;;;;;;13.00;13.00;;;;;27.68;29.76;100949.41;4975303;28;45607;-79
2023/06/15 11:51:58;;;;;;;;;18.00;18.00;;;;;27.67;27.79;100950.44;4975394;28;45577;-78
2023/06/15 11:54:28;;;;;;;;;16.25;16.25;;;;;27.73;28.49;100957.69;4975579;28;45617;-79
2023/06/15 11:56:58;;;;;;;;;16.00;15.00;;;;;27.75;28.43;100955.59;4975235;28;46779;-79
2023/06/15 11:59:25;;;;;;;;;15.25;14.50;;;;;27.77;28.56;100954.34;4975090;28;46338;-79
2023/06/15 12:01:53;;;;;;;;;16.00;15.50;;;;;27.81;28.54;100949.34;4957835;28;45688;-80
2023/06/15 12:04:19;;;;;;;;;15.00;15.00;;;;;27.82;28.31;100954.53;4975253;28;45665;-79
2023/06/15 12:06:47;;;;;;;;;14.75;14.00;;;;;27.83;27.84;100960.75;4975068;28;47166;-80
2023/06/15 12:09:14;;;;;;;;;20.00;18.75;;;;;27.80;27.80;100956.59;4973852;28;46060;-79
2023/06/15 12:11:50;;;;;;;;;15.75;15.25;;;;;27.74;27.65;100940.50;4975333;28;45649;-80
2023/06/15 12:14:22;;;;;;;;;19.25;17.00;;;;;27.74;27.31;100935.94;4975397;28;45981;-79
2023/06/15 12:16:50;;;;;;;;;19.00;18.25;;;;;27.85;27.30;100950.59;4975229;28;45576;-78
2023/06/15 12:19:16;;;;;;;;;17.00;17.00;;;;;27.84;27.57;100940.88;4975013;28;46122;-79
2023/06/15 12:21:43;;;;;;;;;15.75;13.50;;;;;27.93;26.82;100951.19;4975096;28;45693;-76
2023/06/15 12:24:14;;;;;;;;;18.25;16.00;;;;;27.96;27.28;100949.94;4974919;28;45659;-79
2023/06/15 12:26:39;;;;;;;;;18.75;16.50;;;;;27.94;27.00;100941.22;4974773;28;45628;-78
2023/06/15 12:29:16;;;;;;;;;18.50;17.25;;;;;27.96;26.54;100944.53;4974533;28;46046;-79
2023/06/15 12:31:41;;;;;;;;;20.25;17.75;;;;;28.04;27.12;100944.28;4974887;28;45526;-81
2023/06/15 12:34:08;;;;;;;;;18.25;18.25;;;;;28.04;27.12;100949.66;4974747;28;45930;-80